Flight Information

DEPARTURE
SANTA MONICA, CA
Elevation:
169
Runways:
3/21 - 3500x150 - ASPH-G
H1 - 40x40 - ASPH-G
ATIS:
119.15 310-450-4620
Ground:
121.9
Tower:
120.1
DESTINATION
,
Elevation:
TPA:
1000 (est.)


6795.3 NM73° True-14° Var59° HDG

Flight Plan:
(click to file on line)

1. Type
2. Aircraft Identification
3. Aircraft Type / Special Equipment
4. True Airspeed
kts
5. Departure Airport
(ICAO code)
6. Arriving Airport
(ICAO code)
7. Cruising Altitude
ft
8. Alternate Airport
(ICAO code)
9. Route of Flight
10. Remarks


00:00:00 Departure ATIS: Destination ATIS:

Clearance Limit:
Route:
Altitude: Expect in minutes
Frequency:
Transponder: (7500 Hijack / 7600 Lost Comms / 7700 Emergency)


KSMO 010651Z AUTO 00000KT 10SM CLR 14/13 A2989 RMK AO2 SLP120 T01440128
Time: 2020-04-01T06:51:00Z
1585726917
Winds: calm
Visibility: 10.0 sm
Clouds (AGL): CLR
Temperature: 14.4 C
Dew Point: 12.8 C
Pressure: 29.890747 in Hgbr


Notes:

Data extracted from FAA Digital Chart Supplement. Effective: 0901Z Thursday, Mar 26, 2020 to 0901Z Thursday, May 21, 2020
Current ATIS data is provided courtisy of PilotEdge.